sensor_id;sensor_type;location;lat;lon;timestamp;temperature;humidity
24412;DHT22;12544;46.760;15.942;2024-03-07T00:02:19;5.30;99.90
24412;DHT22;12544;46.760;15.942;2024-03-07T00:04:44;5.40;99.90
24412;DHT22;12544;46.760;15.942;2024-03-07T00:07:10;5.40;99.90
24412;DHT22;12544;46.760;15.942;2024-03-07T00:09:36;5.40;99.90
24412;DHT22;12544;46.760;15.942;2024-03-07T00:12:03;5.40;99.90
24412;DHT22;12544;46.760;15.942;2024-03-07T00:14:28;5.40;99.90
24412;DHT22;12544;46.760;15.942;2024-03-07T00:16:55;5.50;99.90
24412;DHT22;12544;46.760;15.942;2024-03-07T00:19:21;5.50;99.90
24412;DHT22;12544;46.760;15.942;2024-03-07T00:21:47;5.40;99.90
24412;DHT22;12544;46.760;15.942;2024-03-07T00:24:13;5.30;99.90
24412;DHT22;12544;46.760;15.942;2024-03-07T00:26:41;5.20;99.90
24412;DHT22;12544;46.760;15.942;2024-03-07T00:29:07;5.00;99.90
24412;DHT22;12544;46.760;15.942;2024-03-07T00:31:33;5.00;99.90
24412;DHT22;12544;46.760;15.942;2024-03-07T00:33:59;4.80;99.90
24412;DHT22;12544;46.760;15.942;2024-03-07T00:36:25;4.70;99.90
24412;DHT22;12544;46.760;15.942;2024-03-07T00:38:53;4.70;99.90
24412;DHT22;12544;46.760;15.942;2024-03-07T00:41:19;4.60;99.90
24412;DHT22;12544;46.760;15.942;2024-03-07T00:43:46;4.60;99.90
24412;DHT22;12544;46.760;15.942;2024-03-07T00:49:34;4.50;99.90
24412;DHT22;12544;46.760;15.942;2024-03-07T00:52:00;4.40;99.90
24412;DHT22;12544;46.760;15.942;2024-03-07T00:57:47;4.30;99.90
24412;DHT22;12544;46.760;15.942;2024-03-07T01:00:13;4.30;99.90
24412;DHT22;12544;46.760;15.942;2024-03-07T01:02:42;4.50;99.90
24412;DHT22;12544;46.760;15.942;2024-03-07T01:05:11;4.70;99.90
24412;DHT22;12544;46.760;15.942;2024-03-07T01:07:38;4.80;99.90
24412;DHT22;12544;46.760;15.942;2024-03-07T01:10:05;4.90;99.90
24412;DHT22;12544;46.760;15.942;2024-03-07T01:12:32;4.90;99.90
24412;DHT22;12544;46.760;15.942;2024-03-07T01:14:59;4.90;99.90
24412;DHT22;12544;46.760;15.942;2024-03-07T01:17:26;4.90;99.90
24412;DHT22;12544;46.760;15.942;2024-03-07T01:19:52;5.00;99.90
24412;DHT22;12544;46.760;15.942;2024-03-07T01:22:17;5.00;99.90
24412;DHT22;12544;46.760;15.942;2024-03-07T01:24:43;5.00;99.90
24412;DHT22;12544;46.760;15.942;2024-03-07T01:27:08;5.00;99.90
24412;DHT22;12544;46.760;15.942;2024-03-07T01:29:34;5.10;99.90
24412;DHT22;12544;46.760;15.942;2024-03-07T01:35:22;5.30;99.90
24412;DHT22;12544;46.760;15.942;2024-03-07T01:41:09;5.50;99.90
24412;DHT22;12544;46.760;15.942;2024-03-07T01:43:35;5.50;99.90
24412;DHT22;12544;46.760;15.942;2024-03-07T01:49:22;5.70;99.90
24412;DHT22;12544;46.760;15.942;2024-03-07T01:51:48;5.70;99.90
24412;DHT22;12544;46.760;15.942;2024-03-07T01:54:13;5.70;99.90
24412;DHT22;12544;46.760;15.942;2024-03-07T01:56:39;5.70;99.90
24412;DHT22;12544;46.760;15.942;2024-03-07T01:59:06;5.70;99.90
24412;DHT22;12544;46.760;15.942;2024-03-07T02:01:33;5.60;99.90
24412;DHT22;12544;46.760;15.942;2024-03-07T02:03:59;5.60;99.90
24412;DHT22;12544;46.760;15.942;2024-03-07T02:06:25;5.60;99.90
24412;DHT22;12544;46.760;15.942;2024-03-07T02:08:52;5.50;99.90
24412;DHT22;12544;46.760;15.942;2024-03-07T02:11:17;5.50;99.90
24412;DHT22;12544;46.760;15.942;2024-03-07T02:17:05;5.40;99.90
24412;DHT22;12544;46.760;15.942;2024-03-07T02:19:32;5.30;99.90
24412;DHT22;12544;46.760;15.942;2024-03-07T02:21:58;5.30;99.90
24412;DHT22;12544;46.760;15.942;2024-03-07T02:24:24;5.30;99.90
24412;DHT22;12544;46.760;15.942;2024-03-07T02:30:12;5.20;99.90
24412;DHT22;12544;46.760;15.942;2024-03-07T02:32:38;5.00;99.90
24412;DHT22;12544;46.760;15.942;2024-03-07T02:38:26;5.00;99.90
24412;DHT22;12544;46.760;15.942;2024-03-07T02:40:51;5.00;99.90
24412;DHT22;12544;46.760;15.942;2024-03-07T02:43:17;4.90;99.90
24412;DHT22;12544;46.760;15.942;2024-03-07T02:45:43;4.90;99.90
24412;DHT22;12544;46.760;15.942;2024-03-07T02:48:09;4.90;99.90
24412;DHT22;12544;46.760;15.942;2024-03-07T02:50:35;4.90;99.90
24412;DHT22;12544;46.760;15.942;2024-03-07T02:53:06;4.90;99.90
24412;DHT22;12544;46.760;15.942;2024-03-07T02:55:32;4.90;99.90
24412;DHT22;12544;46.760;15.942;2024-03-07T02:57:58;5.00;99.90
24412;DHT22;12544;46.760;15.942;2024-03-07T03:00:25;5.00;99.90
24412;DHT22;12544;46.760;15.942;2024-03-07T03:02:56;5.00;99.90
24412;DHT22;12544;46.760;15.942;2024-03-07T03:05:21;5.00;99.90
24412;DHT22;12544;46.760;15.942;2024-03-07T03:07:48;5.10;99.90
24412;DHT22;12544;46.760;15.942;2024-03-07T03:10:24;5.10;99.90
24412;DHT22;12544;46.760;15.942;2024-03-07T03:12:55;5.00;99.90
24412;DHT22;12544;46.760;15.942;2024-03-07T03:15:23;5.10;99.90
24412;DHT22;12544;46.760;15.942;2024-03-07T03:17:49;5.10;99.90
24412;DHT22;12544;46.760;15.942;2024-03-07T03:20:15;5.10;99.90
24412;DHT22;12544;46.760;15.942;2024-03-07T03:22:51;5.10;99.90
24412;DHT22;12544;46.760;15.942;2024-03-07T03:25:17;5.10;99.90
24412;DHT22;12544;46.760;15.942;2024-03-07T03:27:43;5.10;99.90
24412;DHT22;12544;46.760;15.942;2024-03-07T03:30:09;5.10;99.90
24412;DHT22;12544;46.760;15.942;2024-03-07T03:32:39;5.10;99.90
24412;DHT22;12544;46.760;15.942;2024-03-07T03:35:05;5.10;99.90
24412;DHT22;12544;46.760;15.942;2024-03-07T03:37:31;5.00;99.90
24412;DHT22;12544;46.760;15.942;2024-03-07T03:39:56;5.00;99.90
24412;DHT22;12544;46.760;15.942;2024-03-07T03:42:22;5.00;99.90
24412;DHT22;12544;46.760;15.942;2024-03-07T03:44:48;5.00;99.90
24412;DHT22;12544;46.760;15.942;2024-03-07T03:47:13;5.00;99.90
24412;DHT22;12544;46.760;15.942;2024-03-07T03:49:39;5.00;99.90
24412;DHT22;12544;46.760;15.942;2024-03-07T03:52:05;5.00;99.90
24412;DHT22;12544;46.760;15.942;2024-03-07T03:54:30;4.90;99.90
24412;DHT22;12544;46.760;15.942;2024-03-07T03:56:56;4.90;99.90
24412;DHT22;12544;46.760;15.942;2024-03-07T03:59:21;4.90;99.90
24412;DHT22;12544;46.760;15.942;2024-03-07T04:01:47;5.00;99.90
24412;DHT22;12544;46.760;15.942;2024-03-07T04:04:13;5.10;99.90
24412;DHT22;12544;46.760;15.942;2024-03-07T04:06:39;5.10;99.90
24412;DHT22;12544;46.760;15.942;2024-03-07T04:09:05;5.20;99.90
24412;DHT22;12544;46.760;15.942;2024-03-07T04:11:30;5.30;99.90
24412;DHT22;12544;46.760;15.942;2024-03-07T04:13:56;5.30;99.90
24412;DHT22;12544;46.760;15.942;2024-03-07T04:16:22;5.40;99.90
24412;DHT22;12544;46.760;15.942;2024-03-07T04:18:48;5.40;99.90
24412;DHT22;12544;46.760;15.942;2024-03-07T04:21:14;5.40;99.90
24412;DHT22;12544;46.760;15.942;2024-03-07T04:23:42;5.40;99.90
24412;DHT22;12544;46.760;15.942;2024-03-07T04:26:08;5.30;99.90
24412;DHT22;12544;46.760;15.942;2024-03-07T04:28:34;5.30;99.90
24412;DHT22;12544;46.760;15.942;2024-03-07T04:30:59;5.30;99.90
24412;DHT22;12544;46.760;15.942;2024-03-07T04:33:25;5.30;99.90
24412;DHT22;12544;46.760;15.942;2024-03-07T04:39:14;5.20;99.90
24412;DHT22;12544;46.760;15.942;2024-03-07T04:42:06;5.20;99.90
24412;DHT22;12544;46.760;15.942;2024-03-07T04:44:34;5.20;99.90
24412;DHT22;12544;46.760;15.942;2024-03-07T04:47:04;5.10;99.90
24412;DHT22;12544;46.760;15.942;2024-03-07T04:52:52;5.10;99.90
24412;DHT22;12544;46.760;15.942;2024-03-07T04:55:18;5.10;99.90
24412;DHT22;12544;46.760;15.942;2024-03-07T04:57:43;5.10;99.90
24412;DHT22;12544;46.760;15.942;2024-03-07T05:00:13;5.10;99.90
24412;DHT22;12544;46.760;15.942;2024-03-07T05:02:43;5.10;99.90
24412;DHT22;12544;46.760;15.942;2024-03-07T05:05:08;5.20;99.90
24412;DHT22;12544;46.760;15.942;2024-03-07T05:07:34;5.20;99.90
24412;DHT22;12544;46.760;15.942;2024-03-07T05:10:02;5.20;99.90
24412;DHT22;12544;46.760;15.942;2024-03-07T05:12:28;5.10;99.90
24412;DHT22;12544;46.760;15.942;2024-03-07T05:14:53;5.20;99.90
24412;DHT22;12544;46.760;15.942;2024-03-07T05:17:19;5.10;99.90
24412;DHT22;12544;46.760;15.942;2024-03-07T05:19:45;5.10;99.90
24412;DHT22;12544;46.760;15.942;2024-03-07T05:22:11;5.10;99.90
24412;DHT22;12544;46.760;15.942;2024-03-07T05:24:41;5.00;99.90
24412;DHT22;12544;46.760;15.942;2024-03-07T05:27:08;5.00;99.90
24412;DHT22;12544;46.760;15.942;2024-03-07T05:29:37;5.00;99.90
24412;DHT22;12544;46.760;15.942;2024-03-07T05:32:25;4.90;99.90
24412;DHT22;12544;46.760;15.942;2024-03-07T05:34:52;4.90;99.90
24412;DHT22;12544;46.760;15.942;2024-03-07T05:37:21;4.90;99.90
24412;DHT22;12544;46.760;15.942;2024-03-07T05:39:50;4.90;99.90
24412;DHT22;12544;46.760;15.942;2024-03-07T05:42:15;4.90;99.90
24412;DHT22;12544;46.760;15.942;2024-03-07T05:44:41;4.90;99.90
24412;DHT22;12544;46.760;15.942;2024-03-07T05:47:07;4.80;99.90
24412;DHT22;12544;46.760;15.942;2024-03-07T05:49:34;4.80;99.90
24412;DHT22;12544;46.760;15.942;2024-03-07T05:52:00;4.80;99.90
24412;DHT22;12544;46.760;15.942;2024-03-07T05:54:25;4.80;99.90
24412;DHT22;12544;46.760;15.942;2024-03-07T05:56:51;4.80;99.90
24412;DHT22;12544;46.760;15.942;2024-03-07T05:59:17;4.80;99.90
24412;DHT22;12544;46.760;15.942;2024-03-07T06:01:43;4.80;99.90
24412;DHT22;12544;46.760;15.942;2024-03-07T06:04:09;4.80;99.90
24412;DHT22;12544;46.760;15.942;2024-03-07T06:06:36;4.80;99.90
24412;DHT22;12544;46.760;15.942;2024-03-07T06:09:04;4.80;99.90
24412;DHT22;12544;46.760;15.942;2024-03-07T06:11:38;4.90;99.90
24412;DHT22;12544;46.760;15.942;2024-03-07T06:14:05;4.90;99.90
24412;DHT22;12544;46.760;15.942;2024-03-07T06:16:35;4.90;99.90
24412;DHT22;12544;46.760;15.942;2024-03-07T06:19:02;4.90;99.90
24412;DHT22;12544;46.760;15.942;2024-03-07T06:21:30;4.90;99.90
24412;DHT22;12544;46.760;15.942;2024-03-07T06:23:59;4.90;99.90
24412;DHT22;12544;46.760;15.942;2024-03-07T06:26:43;4.90;99.90
24412;DHT22;12544;46.760;15.942;2024-03-07T06:29:09;4.90;99.90
24412;DHT22;12544;46.760;15.942;2024-03-07T06:31:37;5.00;99.90
24412;DHT22;12544;46.760;15.942;2024-03-07T06:34:03;5.00;99.90
24412;DHT22;12544;46.760;15.942;2024-03-07T06:36:28;5.00;99.90
24412;DHT22;12544;46.760;15.942;2024-03-07T06:38:54;5.00;99.90
24412;DHT22;12544;46.760;15.942;2024-03-07T06:41:20;5.10;99.90
24412;DHT22;12544;46.760;15.942;2024-03-07T06:43:46;5.10;99.90
24412;DHT22;12544;46.760;15.942;2024-03-07T06:46:12;5.20;99.90
24412;DHT22;12544;46.760;15.942;2024-03-07T06:48:38;5.20;99.90
24412;DHT22;12544;46.760;15.942;2024-03-07T06:51:07;5.20;99.90
24412;DHT22;12544;46.760;15.942;2024-03-07T06:53:33;5.30;99.90
24412;DHT22;12544;46.760;15.942;2024-03-07T06:55:59;5.40;99.90
24412;DHT22;12544;46.760;15.942;2024-03-07T06:58:24;5.50;99.90
24412;DHT22;12544;46.760;15.942;2024-03-07T07:00:52;5.50;99.90
24412;DHT22;12544;46.760;15.942;2024-03-07T07:03:22;5.50;99.90
24412;DHT22;12544;46.760;15.942;2024-03-07T07:05:48;5.50;99.90
24412;DHT22;12544;46.760;15.942;2024-03-07T07:08:13;5.60;99.90
24412;DHT22;12544;46.760;15.942;2024-03-07T07:10:39;5.60;99.90
24412;DHT22;12544;46.760;15.942;2024-03-07T07:13:09;5.70;99.90
24412;DHT22;12544;46.760;15.942;2024-03-07T07:15:35;5.80;99.90
24412;DHT22;12544;46.760;15.942;2024-03-07T07:18:02;5.80;99.90
24412;DHT22;12544;46.760;15.942;2024-03-07T07:23:50;6.00;99.90
24412;DHT22;12544;46.760;15.942;2024-03-07T07:26:16;6.00;99.90
24412;DHT22;12544;46.760;15.942;2024-03-07T07:28:42;6.10;99.90
24412;DHT22;12544;46.760;15.942;2024-03-07T07:34:29;6.10;99.90
24412;DHT22;12544;46.760;15.942;2024-03-07T07:36:55;6.10;99.90
24412;DHT22;12544;46.760;15.942;2024-03-07T07:39:29;6.10;99.90
24412;DHT22;12544;46.760;15.942;2024-03-07T07:41:55;6.10;99.90
24412;DHT22;12544;46.760;15.942;2024-03-07T07:44:20;6.30;99.90
24412;DHT22;12544;46.760;15.942;2024-03-07T07:46:47;6.30;99.90
24412;DHT22;12544;46.760;15.942;2024-03-07T07:49:14;6.40;99.90
24412;DHT22;12544;46.760;15.942;2024-03-07T07:52:01;6.40;99.90
24412;DHT22;12544;46.760;15.942;2024-03-07T07:54:26;6.50;99.90
24412;DHT22;12544;46.760;15.942;2024-03-07T07:56:52;6.50;99.90
24412;DHT22;12544;46.760;15.942;2024-03-07T07:59:17;6.60;99.90
24412;DHT22;12544;46.760;15.942;2024-03-07T08:01:43;6.70;99.90
24412;DHT22;12544;46.760;15.942;2024-03-07T08:04:08;6.80;99.90
24412;DHT22;12544;46.760;15.942;2024-03-07T08:06:35;6.80;99.90
24412;DHT22;12544;46.760;15.942;2024-03-07T08:09:00;6.80;99.90
24412;DHT22;12544;46.760;15.942;2024-03-07T08:11:26;6.90;99.90
24412;DHT22;12544;46.760;15.942;2024-03-07T08:13:52;6.90;99.90
24412;DHT22;12544;46.760;15.942;2024-03-07T08:16:17;6.90;99.90
24412;DHT22;12544;46.760;15.942;2024-03-07T08:18:43;7.00;99.90
24412;DHT22;12544;46.760;15.942;2024-03-07T08:21:09;7.00;99.90
24412;DHT22;12544;46.760;15.942;2024-03-07T08:23:38;7.00;99.90
24412;DHT22;12544;46.760;15.942;2024-03-07T08:26:04;7.00;99.90
24412;DHT22;12544;46.760;15.942;2024-03-07T08:28:31;7.10;99.90
24412;DHT22;12544;46.760;15.942;2024-03-07T08:30:56;7.10;99.90
24412;DHT22;12544;46.760;15.942;2024-03-07T08:36:43;7.30;99.90
24412;DHT22;12544;46.760;15.942;2024-03-07T08:39:10;7.30;99.90
24412;DHT22;12544;46.760;15.942;2024-03-07T08:41:36;7.40;99.90
24412;DHT22;12544;46.760;15.942;2024-03-07T08:44:06;7.30;99.90
24412;DHT22;12544;46.760;15.942;2024-03-07T08:46:32;7.40;99.90
24412;DHT22;12544;46.760;15.942;2024-03-07T08:48:58;7.40;99.90
24412;DHT22;12544;46.760;15.942;2024-03-07T08:51:23;7.50;99.90
24412;DHT22;12544;46.760;15.942;2024-03-07T08:53:49;7.50;99.90
24412;DHT22;12544;46.760;15.942;2024-03-07T08:56:15;7.50;99.90
24412;DHT22;12544;46.760;15.942;2024-03-07T08:58:41;7.60;99.90
24412;DHT22;12544;46.760;15.942;2024-03-07T09:08:17;7.60;99.90
24412;DHT22;12544;46.760;15.942;2024-03-07T09:10:43;7.50;99.90
24412;DHT22;12544;46.760;15.942;2024-03-07T09:13:09;7.60;99.90
24412;DHT22;12544;46.760;15.942;2024-03-07T09:15:35;7.60;99.90
24412;DHT22;12544;46.760;15.942;2024-03-07T09:18:02;7.70;99.90
24412;DHT22;12544;46.760;15.942;2024-03-07T09:23:50;7.80;99.90
24412;DHT22;12544;46.760;15.942;2024-03-07T09:26:16;7.70;99.90
24412;DHT22;12544;46.760;15.942;2024-03-07T09:28:41;7.60;99.90
24412;DHT22;12544;46.760;15.942;2024-03-07T09:34:29;7.70;99.90
24412;DHT22;12544;46.760;15.942;2024-03-07T09:36:56;7.70;99.90
24412;DHT22;12544;46.760;15.942;2024-03-07T09:39:22;7.70;99.90
24412;DHT22;12544;46.760;15.942;2024-03-07T09:41:56;7.80;99.90
24412;DHT22;12544;46.760;15.942;2024-03-07T09:44:23;8.10;99.90
24412;DHT22;12544;46.760;15.942;2024-03-07T09:46:54;8.50;99.90
24412;DHT22;12544;46.760;15.942;2024-03-07T09:49:20;8.60;99.90
24412;DHT22;12544;46.760;15.942;2024-03-07T09:51:47;8.90;99.90
24412;DHT22;12544;46.760;15.942;2024-03-07T09:54:14;9.00;99.90
24412;DHT22;12544;46.760;15.942;2024-03-07T09:56:41;8.90;99.90
24412;DHT22;12544;46.760;15.942;2024-03-07T10:02:32;9.20;99.90
24412;DHT22;12544;46.760;15.942;2024-03-07T10:05:05;9.30;99.90
24412;DHT22;12544;46.760;15.942;2024-03-07T10:07:33;9.30;99.90
24412;DHT22;12544;46.760;15.942;2024-03-07T10:10:00;9.70;99.90
24412;DHT22;12544;46.760;15.942;2024-03-07T10:12:25;10.00;99.90
24412;DHT22;12544;46.760;15.942;2024-03-07T10:14:55;9.50;99.90
24412;DHT22;12544;46.760;15.942;2024-03-07T10:20:44;9.70;99.90
24412;DHT22;12544;46.760;15.942;2024-03-07T10:23:10;9.90;99.90
24412;DHT22;12544;46.760;15.942;2024-03-07T10:25:36;10.10;99.90
24412;DHT22;12544;46.760;15.942;2024-03-07T10:28:03;9.90;99.90
24412;DHT22;12544;46.760;15.942;2024-03-07T10:33:51;10.30;99.90
24412;DHT22;12544;46.760;15.942;2024-03-07T10:36:17;10.40;99.90
24412;DHT22;12544;46.760;15.942;2024-03-07T10:38:42;10.60;99.90
24412;DHT22;12544;46.760;15.942;2024-03-07T10:47:37;9.60;99.90
24412;DHT22;12544;46.760;15.942;2024-03-07T10:50:15;9.60;99.90
24412;DHT22;12544;46.760;15.942;2024-03-07T10:53:02;9.90;99.90
24412;DHT22;12544;46.760;15.942;2024-03-07T10:58:50;11.30;99.90
24412;DHT22;12544;46.760;15.942;2024-03-07T11:01:20;11.30;99.90
24412;DHT22;12544;46.760;15.942;2024-03-07T11:03:46;11.70;99.90
24412;DHT22;12544;46.760;15.942;2024-03-07T11:09:34;10.60;99.90
24412;DHT22;12544;46.760;15.942;2024-03-07T11:12:01;10.90;99.90
24412;DHT22;12544;46.760;15.942;2024-03-07T11:14:32;11.20;99.90
24412;DHT22;12544;46.760;15.942;2024-03-07T11:16:59;11.10;99.90
24412;DHT22;12544;46.760;15.942;2024-03-07T11:19:31;11.50;99.90
24412;DHT22;12544;46.760;15.942;2024-03-07T11:21:57;11.80;99.20
24412;DHT22;12544;46.760;15.942;2024-03-07T11:24:31;11.70;99.40
24412;DHT22;12544;46.760;15.942;2024-03-07T11:30:20;11.70;97.90
24412;DHT22;12544;46.760;15.942;2024-03-07T11:32:47;11.20;98.30
24412;DHT22;12544;46.760;15.942;2024-03-07T11:35:14;10.70;97.50
24412;DHT22;12544;46.760;15.942;2024-03-07T11:37:44;10.10;97.50
24412;DHT22;12544;46.760;15.942;2024-03-07T11:46:07;9.90;99.30
24412;DHT22;12544;46.760;15.942;2024-03-07T11:48:39;10.20;99.60
24412;DHT22;12544;46.760;15.942;2024-03-07T11:54:29;10.50;99.90
24412;DHT22;12544;46.760;15.942;2024-03-07T11:56:56;10.60;99.30
24412;DHT22;12544;46.760;15.942;2024-03-07T11:59:23;10.50;98.10
24412;DHT22;12544;46.760;15.942;2024-03-07T12:01:53;10.40;99.20
24412;DHT22;12544;46.760;15.942;2024-03-07T12:04:19;10.60;98.70
24412;DHT22;12544;46.760;15.942;2024-03-07T12:06:52;10.90;98.80
24412;DHT22;12544;46.760;15.942;2024-03-07T12:09:17;10.80;97.30
24412;DHT22;12544;46.760;15.942;2024-03-07T12:11:50;10.30;97.00
24412;DHT22;12544;46.760;15.942;2024-03-07T12:17:40;9.80;98.00
24412;DHT22;12544;46.760;15.942;2024-03-07T12:20:06;9.90;97.10
24412;DHT22;12544;46.760;15.942;2024-03-07T12:22:59;9.90;97.60
24412;DHT22;12544;46.760;15.942;2024-03-07T12:25:28;10.10;97.60
24412;DHT22;12544;46.760;15.942;2024-03-07T12:28:03;10.30;96.30
24412;DHT22;12544;46.760;15.942;2024-03-07T12:33:13;10.30;96.00
24412;DHT22;12544;46.760;15.942;2024-03-07T12:35:45;10.30;97.30
24412;DHT22;12544;46.760;15.942;2024-03-07T12:38:11;10.20;97.00
24412;DHT22;12544;46.760;15.942;2024-03-07T12:40:41;9.90;95.30
24412;DHT22;12544;46.760;15.942;2024-03-07T12:43:18;9.90;96.70
24412;DHT22;12544;46.760;15.942;2024-03-07T12:45:53;9.90;95.90
24412;DHT22;12544;46.760;15.942;2024-03-07T12:48:23;9.90;96.50
24412;DHT22;12544;46.760;15.942;2024-03-07T12:50:49;9.70;96.10
24412;DHT22;12544;46.760;15.942;2024-03-07T12:53:22;9.90;96.40
24412;DHT22;12544;46.760;15.942;2024-03-07T12:59:10;10.40;95.50
24412;DHT22;12544;46.760;15.942;2024-03-07T13:01:35;10.20;95.60
24412;DHT22;12544;46.760;15.942;2024-03-07T13:07:26;9.50;94.50
24412;DHT22;12544;46.760;15.942;2024-03-07T13:09:52;9.40;96.00
24412;DHT22;12544;46.760;15.942;2024-03-07T13:12:18;9.40;96.00
24412;DHT22;12544;46.760;15.942;2024-03-07T13:14:43;9.50;95.40
24412;DHT22;12544;46.760;15.942;2024-03-07T13:20:32;10.40;94.30
24412;DHT22;12544;46.760;15.942;2024-03-07T13:22:58;10.70;94.10
24412;DHT22;12544;46.760;15.942;2024-03-07T13:25:26;11.20;93.20
24412;DHT22;12544;46.760;15.942;2024-03-07T13:28:10;11.40;94.10
24412;DHT22;12544;46.760;15.942;2024-03-07T13:34:01;10.70;93.20
24412;DHT22;12544;46.760;15.942;2024-03-07T13:36:28;10.90;93.80
24412;DHT22;12544;46.760;15.942;2024-03-07T13:38:53;11.00;93.30
24412;DHT22;12544;46.760;15.942;2024-03-07T13:41:21;11.10;93.00
24412;DHT22;12544;46.760;15.942;2024-03-07T13:43:48;10.90;92.40
24412;DHT22;12544;46.760;15.942;2024-03-07T13:46:14;11.00;92.70
24412;DHT22;12544;46.760;15.942;2024-03-07T13:52:02;11.30;92.60
24412;DHT22;12544;46.760;15.942;2024-03-07T13:54:36;11.70;91.20
24412;DHT22;12544;46.760;15.942;2024-03-07T14:03:06;10.80;91.60
24412;DHT22;12544;46.760;15.942;2024-03-07T14:05:54;10.70;90.70
24412;DHT22;12544;46.760;15.942;2024-03-07T14:08:52;10.90;90.60
24412;DHT22;12544;46.760;15.942;2024-03-07T14:11:57;11.20;91.20
24412;DHT22;12544;46.760;15.942;2024-03-07T14:17:43;11.90;90.10
24412;DHT22;12544;46.760;15.942;2024-03-07T14:31:11;9.80;94.00
24412;DHT22;12544;46.760;15.942;2024-03-07T14:34:18;9.60;94.10
24412;DHT22;12544;46.760;15.942;2024-03-07T14:36:49;9.30;94.40
24412;DHT22;12544;46.760;15.942;2024-03-07T14:39:19;9.10;94.20
24412;DHT22;12544;46.760;15.942;2024-03-07T14:42:05;9.00;95.30
24412;DHT22;12544;46.760;15.942;2024-03-07T14:44:43;9.00;95.20
24412;DHT22;12544;46.760;15.942;2024-03-07T14:47:11;9.10;95.30
24412;DHT22;12544;46.760;15.942;2024-03-07T14:49:38;9.00;94.90
24412;DHT22;12544;46.760;15.942;2024-03-07T14:52:05;9.00;95.40
24412;DHT22;12544;46.760;15.942;2024-03-07T14:54:37;8.90;94.70
24412;DHT22;12544;46.760;15.942;2024-03-07T14:57:04;8.80;95.40
24412;DHT22;12544;46.760;15.942;2024-03-07T14:59:30;8.80;95.90
24412;DHT22;12544;46.760;15.942;2024-03-07T15:01:56;8.80;95.50
24412;DHT22;12544;46.760;15.942;2024-03-07T15:04:24;8.80;96.10
24412;DHT22;12544;46.760;15.942;2024-03-07T15:06:52;8.80;96.20
24412;DHT22;12544;46.760;15.942;2024-03-07T15:09:18;8.80;96.50
24412;DHT22;12544;46.760;15.942;2024-03-07T15:11:44;8.70;96.20
24412;DHT22;12544;46.760;15.942;2024-03-07T15:14:11;8.60;96.50
24412;DHT22;12544;46.760;15.942;2024-03-07T15:16:37;8.60;96.00
24412;DHT22;12544;46.760;15.942;2024-03-07T15:19:04;8.60;96.20
24412;DHT22;12544;46.760;15.942;2024-03-07T15:21:30;8.50;96.50
24412;DHT22;12544;46.760;15.942;2024-03-07T15:23:57;8.50;97.60
24412;DHT22;12544;46.760;15.942;2024-03-07T15:26:23;8.50;97.20
24412;DHT22;12544;46.760;15.942;2024-03-07T15:28:50;8.40;98.00
24412;DHT22;12544;46.760;15.942;2024-03-07T15:31:16;8.40;97.80
24412;DHT22;12544;46.760;15.942;2024-03-07T15:33:45;8.40;98.30
24412;DHT22;12544;46.760;15.942;2024-03-07T15:36:12;8.40;98.10
24412;DHT22;12544;46.760;15.942;2024-03-07T15:38:37;8.30;98.20
24412;DHT22;12544;46.760;15.942;2024-03-07T15:41:04;8.30;98.20
24412;DHT22;12544;46.760;15.942;2024-03-07T15:43:30;8.30;98.10
24412;DHT22;12544;46.760;15.942;2024-03-07T15:45:56;8.30;98.10
24412;DHT22;12544;46.760;15.942;2024-03-07T15:48:25;8.30;98.30
24412;DHT22;12544;46.760;15.942;2024-03-07T15:50:52;8.20;98.40
24412;DHT22;12544;46.760;15.942;2024-03-07T15:53:18;8.30;98.70
24412;DHT22;12544;46.760;15.942;2024-03-07T15:55:44;8.30;99.40
24412;DHT22;12544;46.760;15.942;2024-03-07T15:58:09;8.20;99.90
24412;DHT22;12544;46.760;15.942;2024-03-07T16:00:36;7.80;99.90
24412;DHT22;12544;46.760;15.942;2024-03-07T16:03:04;7.50;99.90
24412;DHT22;12544;46.760;15.942;2024-03-07T16:05:33;7.20;99.90
24412;DHT22;12544;46.760;15.942;2024-03-07T16:08:00;7.10;99.90
24412;DHT22;12544;46.760;15.942;2024-03-07T16:10:28;7.00;99.90
24412;DHT22;12544;46.760;15.942;2024-03-07T16:12:56;7.00;99.90
24412;DHT22;12544;46.760;15.942;2024-03-07T16:15:22;7.00;99.90
24412;DHT22;12544;46.760;15.942;2024-03-07T16:17:50;6.90;99.90
24412;DHT22;12544;46.760;15.942;2024-03-07T16:20:17;7.00;99.90
24412;DHT22;12544;46.760;15.942;2024-03-07T16:22:46;7.00;99.90
24412;DHT22;12544;46.760;15.942;2024-03-07T16:25:15;7.00;99.90
24412;DHT22;12544;46.760;15.942;2024-03-07T16:27:42;7.00;99.90
24412;DHT22;12544;46.760;15.942;2024-03-07T16:30:15;7.00;99.90
24412;DHT22;12544;46.760;15.942;2024-03-07T16:32:42;6.90;99.90
24412;DHT22;12544;46.760;15.942;2024-03-07T16:35:13;6.90;99.90
24412;DHT22;12544;46.760;15.942;2024-03-07T16:37:42;6.80;99.90
24412;DHT22;12544;46.760;15.942;2024-03-07T16:40:13;6.90;99.90
24412;DHT22;12544;46.760;15.942;2024-03-07T16:42:43;6.90;99.90
24412;DHT22;12544;46.760;15.942;2024-03-07T16:45:10;6.90;99.90
24412;DHT22;12544;46.760;15.942;2024-03-07T16:47:42;6.90;99.90
24412;DHT22;12544;46.760;15.942;2024-03-07T16:50:08;6.90;99.90
24412;DHT22;12544;46.760;15.942;2024-03-07T16:52:38;6.80;99.90
24412;DHT22;12544;46.760;15.942;2024-03-07T16:55:06;6.80;99.90
24412;DHT22;12544;46.760;15.942;2024-03-07T16:57:37;6.80;99.90
24412;DHT22;12544;46.760;15.942;2024-03-07T17:00:04;6.70;99.90
24412;DHT22;12544;46.760;15.942;2024-03-07T17:02:29;6.70;99.90
24412;DHT22;12544;46.760;15.942;2024-03-07T17:04:55;6.60;99.90
24412;DHT22;12544;46.760;15.942;2024-03-07T17:07:23;6.70;99.90
24412;DHT22;12544;46.760;15.942;2024-03-07T17:09:49;6.60;99.90
24412;DHT22;12544;46.760;15.942;2024-03-07T17:12:15;6.60;99.90
24412;DHT22;12544;46.760;15.942;2024-03-07T17:14:41;6.60;99.90
24412;DHT22;12544;46.760;15.942;2024-03-07T17:17:10;6.70;99.90
24412;DHT22;12544;46.760;15.942;2024-03-07T17:19:39;6.70;99.90
24412;DHT22;12544;46.760;15.942;2024-03-07T17:22:04;6.60;99.90
24412;DHT22;12544;46.760;15.942;2024-03-07T17:24:32;6.60;99.90
24412;DHT22;12544;46.760;15.942;2024-03-07T17:26:58;6.60;99.90
24412;DHT22;12544;46.760;15.942;2024-03-07T17:29:23;6.70;99.90
24412;DHT22;12544;46.760;15.942;2024-03-07T17:31:49;6.70;99.90
24412;DHT22;12544;46.760;15.942;2024-03-07T17:34:15;6.70;99.90
24412;DHT22;12544;46.760;15.942;2024-03-07T17:36:41;6.70;99.90
24412;DHT22;12544;46.760;15.942;2024-03-07T17:39:10;6.60;99.90
24412;DHT22;12544;46.760;15.942;2024-03-07T17:41:39;6.50;99.90
24412;DHT22;12544;46.760;15.942;2024-03-07T17:44:06;6.50;99.90
24412;DHT22;12544;46.760;15.942;2024-03-07T17:46:41;6.50;99.90
24412;DHT22;12544;46.760;15.942;2024-03-07T17:49:07;6.50;99.90
24412;DHT22;12544;46.760;15.942;2024-03-07T17:54:54;6.30;99.90